sensor_id;sensor_type;location;lat;lon;timestamp;pressure;altitude;pressure_sealevel;temperature;humidity
20015;BME280;61787;42.022;23.078;2023-08-20T00:01:05;96785.69;;;22.81;58.47
20015;BME280;61787;42.022;23.078;2023-08-20T00:02:08;96787.13;;;22.89;58.22
20015;BME280;61787;42.022;23.078;2023-08-20T00:03:13;96784.69;;;22.94;57.96
20015;BME280;61787;42.022;23.078;2023-08-20T00:04:15;96787.66;;;23.04;57.84
20015;BME280;61787;42.022;23.078;2023-08-20T00:05:18;96793.09;;;23.07;57.35
20015;BME280;61787;42.022;23.078;2023-08-20T00:06:20;96788.34;;;23.11;57.15
20015;BME280;61787;42.022;23.078;2023-08-20T00:07:22;96781.91;;;23.21;56.83
20015;BME280;61787;42.022;23.078;2023-08-20T00:08:24;96781.81;;;23.28;56.08
20015;BME280;61787;42.022;23.078;2023-08-20T00:09:25;96778.59;;;23.33;55.97
20015;BME280;61787;42.022;23.078;2023-08-20T00:10:28;96778.47;;;23.41;55.90
20015;BME280;61787;42.022;23.078;2023-08-20T00:11:30;96787.78;;;23.47;55.40
20015;BME280;61787;42.022;23.078;2023-08-20T00:12:32;96788.47;;;23.51;55.30
20015;BME280;61787;42.022;23.078;2023-08-20T00:13:34;96789.31;;;23.48;55.46
20015;BME280;61787;42.022;23.078;2023-08-20T00:14:56;96790.41;;;23.54;54.87
20015;BME280;61787;42.022;23.078;2023-08-20T00:16:00;96785.97;;;23.60;55.34
20015;BME280;61787;42.022;23.078;2023-08-20T00:17:02;96789.06;;;23.62;54.46
20015;BME280;61787;42.022;23.078;2023-08-20T00:18:04;96786.25;;;23.65;54.62
20015;BME280;61787;42.022;23.078;2023-08-20T00:19:06;96791.38;;;23.63;54.84
20015;BME280;61787;42.022;23.078;2023-08-20T00:20:09;96789.91;;;23.59;55.03
20015;BME280;61787;42.022;23.078;2023-08-20T00:21:14;96782.03;;;23.61;55.25
20015;BME280;61787;42.022;23.078;2023-08-20T00:22:16;96784.78;;;23.61;55.04
20015;BME280;61787;42.022;23.078;2023-08-20T00:23:18;96779.84;;;23.52;55.01
20015;BME280;61787;42.022;23.078;2023-08-20T00:24:20;96791.22;;;23.51;55.25
20015;BME280;61787;42.022;23.078;2023-08-20T00:25:22;96795.50;;;23.52;55.27
20015;BME280;61787;42.022;23.078;2023-08-20T00:26:24;96798.41;;;23.41;56.11
20015;BME280;61787;42.022;23.078;2023-08-20T00:27:26;96794.34;;;23.26;56.59
20015;BME280;61787;42.022;23.078;2023-08-20T00:28:27;96795.22;;;23.19;57.15
20015;BME280;61787;42.022;23.078;2023-08-20T00:29:29;96800.34;;;23.17;57.14
20015;BME280;61787;42.022;23.078;2023-08-20T00:30:31;96800.75;;;23.16;57.39
20015;BME280;61787;42.022;23.078;2023-08-20T00:31:32;96799.19;;;23.18;57.10
20015;BME280;61787;42.022;23.078;2023-08-20T00:32:35;96807.88;;;23.10;56.63
20015;BME280;61787;42.022;23.078;2023-08-20T00:33:36;96801.09;;;22.94;57.34
20015;BME280;61787;42.022;23.078;2023-08-20T00:34:39;96801.09;;;22.94;57.41
20015;BME280;61787;42.022;23.078;2023-08-20T00:35:41;96808.50;;;22.98;57.63
20015;BME280;61787;42.022;23.078;2023-08-20T00:36:43;96801.31;;;23.07;57.26
20015;BME280;61787;42.022;23.078;2023-08-20T00:37:44;96800.41;;;23.14;57.43
20015;BME280;61787;42.022;23.078;2023-08-20T00:38:46;96803.81;;;23.21;57.29
20015;BME280;61787;42.022;23.078;2023-08-20T00:39:47;96802.16;;;23.27;57.04
20015;BME280;61787;42.022;23.078;2023-08-20T00:40:49;96795.84;;;23.30;57.14
20015;BME280;61787;42.022;23.078;2023-08-20T00:41:51;96792.75;;;23.28;56.98
20015;BME280;61787;42.022;23.078;2023-08-20T00:42:52;96802.19;;;23.24;57.58
20015;BME280;61787;42.022;23.078;2023-08-20T00:43:54;96799.19;;;23.18;57.31
20015;BME280;61787;42.022;23.078;2023-08-20T00:44:56;96788.22;;;23.18;57.62
20015;BME280;61787;42.022;23.078;2023-08-20T00:45:59;96786.31;;;23.15;57.98
20015;BME280;61787;42.022;23.078;2023-08-20T00:47:02;96793.81;;;23.11;58.34
20015;BME280;61787;42.022;23.078;2023-08-20T00:48:05;96783.03;;;23.01;58.62
20015;BME280;61787;42.022;23.078;2023-08-20T00:49:07;96780.84;;;22.92;58.50
20015;BME280;61787;42.022;23.078;2023-08-20T00:50:09;96790.47;;;23.00;58.39
20015;BME280;61787;42.022;23.078;2023-08-20T00:51:11;96786.91;;;23.03;58.33
20015;BME280;61787;42.022;23.078;2023-08-20T00:52:14;96786.91;;;23.03;58.14
20015;BME280;61787;42.022;23.078;2023-08-20T00:53:17;96794.75;;;23.01;58.24
20015;BME280;61787;42.022;23.078;2023-08-20T00:54:20;96798.19;;;23.05;58.54
20015;BME280;61787;42.022;23.078;2023-08-20T00:55:22;96782.94;;;23.08;58.61
20015;BME280;61787;42.022;23.078;2023-08-20T00:56:23;96785.06;;;23.20;58.11
20015;BME280;61787;42.022;23.078;2023-08-20T00:57:26;96784.19;;;23.26;58.28
20015;BME280;61787;42.022;23.078;2023-08-20T00:58:28;96786.44;;;23.31;57.51
20015;BME280;61787;42.022;23.078;2023-08-20T00:59:31;96776.97;;;23.36;57.49
20015;BME280;61787;42.022;23.078;2023-08-20T01:00:33;96777.34;;;23.38;57.59
20015;BME280;61787;42.022;23.078;2023-08-20T01:01:35;96778.81;;;23.43;57.39
20015;BME280;61787;42.022;23.078;2023-08-20T01:02:37;96776.09;;;23.43;57.36
20015;BME280;61787;42.022;23.078;2023-08-20T01:03:39;96762.34;;;23.46;57.08
20015;BME280;61787;42.022;23.078;2023-08-20T01:04:41;96772.50;;;23.49;56.52
20015;BME280;61787;42.022;23.078;2023-08-20T01:05:50;96771.34;;;23.47;57.14
20015;BME280;61787;42.022;23.078;2023-08-20T01:07:04;96778.00;;;23.46;57.29
20015;BME280;61787;42.022;23.078;2023-08-20T01:08:37;96785.44;;;23.45;57.19
20015;BME280;61787;42.022;23.078;2023-08-20T01:10:03;96789.41;;;23.41;57.42
20015;BME280;61787;42.022;23.078;2023-08-20T01:11:12;96788.22;;;23.42;57.43
20015;BME280;61787;42.022;23.078;2023-08-20T01:12:19;96783.94;;;23.41;57.82
20015;BME280;61787;42.022;23.078;2023-08-20T01:13:21;96784.72;;;23.41;57.84
20015;BME280;61787;42.022;23.078;2023-08-20T01:14:23;96783.13;;;23.44;58.13
20015;BME280;61787;42.022;23.078;2023-08-20T01:15:24;96776.03;;;23.46;57.75
20015;BME280;61787;42.022;23.078;2023-08-20T01:16:26;96777.03;;;23.32;57.86
20015;BME280;61787;42.022;23.078;2023-08-20T01:17:28;96771.06;;;23.14;58.47
20015;BME280;61787;42.022;23.078;2023-08-20T01:18:29;96769.75;;;22.99;59.04
20015;BME280;61787;42.022;23.078;2023-08-20T01:19:31;96769.75;;;22.76;59.83
20015;BME280;61787;42.022;23.078;2023-08-20T01:20:38;96760.25;;;22.53;60.83
20015;BME280;61787;42.022;23.078;2023-08-20T01:21:53;96755.97;;;22.26;61.81
20015;BME280;61787;42.022;23.078;2023-08-20T01:28:48;96761.78;;;21.97;63.22
20015;BME280;61787;42.022;23.078;2023-08-20T01:29:50;96761.03;;;21.93;63.29
20015;BME280;61787;42.022;23.078;2023-08-20T01:30:53;96759.44;;;21.96;63.67
20015;BME280;61787;42.022;23.078;2023-08-20T01:31:56;96760.88;;;22.07;63.32
20015;BME280;61787;42.022;23.078;2023-08-20T01:32:58;96763.94;;;22.13;63.09
20015;BME280;61787;42.022;23.078;2023-08-20T01:34:01;96761.59;;;22.11;63.32
20015;BME280;61787;42.022;23.078;2023-08-20T01:35:03;96768.56;;;22.16;63.00
20015;BME280;61787;42.022;23.078;2023-08-20T01:36:07;96769.31;;;22.20;62.82
20015;BME280;61787;42.022;23.078;2023-08-20T01:37:12;96767.63;;;22.30;62.80
20015;BME280;61787;42.022;23.078;2023-08-20T01:38:14;96762.81;;;22.37;62.34
20015;BME280;61787;42.022;23.078;2023-08-20T01:39:15;96761.19;;;22.43;61.97
20015;BME280;61787;42.022;23.078;2023-08-20T01:40:20;96755.00;;;22.39;62.03
20015;BME280;61787;42.022;23.078;2023-08-20T01:41:21;96751.19;;;22.33;61.95
20015;BME280;61787;42.022;23.078;2023-08-20T01:42:23;96752.31;;;22.36;61.88
20015;BME280;61787;42.022;23.078;2023-08-20T01:43:25;96755.00;;;22.39;62.11
20015;BME280;61787;42.022;23.078;2023-08-20T01:44:26;96753.78;;;22.14;62.57
20015;BME280;61787;42.022;23.078;2023-08-20T01:45:28;96757.91;;;21.95;63.22
20015;BME280;61787;42.022;23.078;2023-08-20T01:46:29;96759.53;;;21.89;63.25
20015;BME280;61787;42.022;23.078;2023-08-20T01:47:32;96760.66;;;21.91;63.63
20015;BME280;61787;42.022;23.078;2023-08-20T01:48:34;96768.84;;;21.91;63.60
20015;BME280;61787;42.022;23.078;2023-08-20T01:49:35;96772.22;;;21.68;64.33
20015;BME280;61787;42.022;23.078;2023-08-20T01:50:37;96771.47;;;21.27;66.33
20015;BME280;61787;42.022;23.078;2023-08-20T01:51:39;96773.06;;;21.21;67.05
20015;BME280;61787;42.022;23.078;2023-08-20T01:52:41;96768.38;;;21.21;67.20
20015;BME280;61787;42.022;23.078;2023-08-20T01:53:42;96768.69;;;21.31;67.20
20015;BME280;61787;42.022;23.078;2023-08-20T01:54:44;96763.88;;;21.45;66.88
20015;BME280;61787;42.022;23.078;2023-08-20T01:55:45;96771.56;;;21.57;66.64
20015;BME280;61787;42.022;23.078;2023-08-20T01:56:47;96768.31;;;21.69;66.02
20015;BME280;61787;42.022;23.078;2023-08-20T01:57:49;96764.28;;;21.81;65.50
20015;BME280;61787;42.022;23.078;2023-08-20T01:58:50;96762.25;;;21.89;65.18
20015;BME280;61787;42.022;23.078;2023-08-20T01:59:52;96761.06;;;21.90;65.59
20015;BME280;61787;42.022;23.078;2023-08-20T02:00:53;96769.25;;;21.90;65.39
20015;BME280;61787;42.022;23.078;2023-08-20T02:01:55;96764.09;;;21.99;65.12
20015;BME280;61787;42.022;23.078;2023-08-20T02:02:57;96764.00;;;22.06;64.65
20015;BME280;61787;42.022;23.078;2023-08-20T02:03:59;96760.94;;;22.04;64.48
20015;BME280;61787;42.022;23.078;2023-08-20T02:05:01;96760.09;;;22.07;64.49
20015;BME280;61787;42.022;23.078;2023-08-20T02:06:03;96761.84;;;21.94;65.17
20015;BME280;61787;42.022;23.078;2023-08-20T02:07:04;96769.13;;;21.66;65.72
20015;BME280;61787;42.022;23.078;2023-08-20T02:08:06;96763.91;;;21.42;66.51
20015;BME280;61787;42.022;23.078;2023-08-20T02:09:08;96782.75;;;21.25;66.18
20015;BME280;61787;42.022;23.078;2023-08-20T02:10:09;96778.19;;;21.08;66.43
20015;BME280;61787;42.022;23.078;2023-08-20T02:11:11;96775.97;;;20.96;66.90
20015;BME280;61787;42.022;23.078;2023-08-20T02:12:13;96770.97;;;20.88;67.27
20015;BME280;61787;42.022;23.078;2023-08-20T02:13:14;96771.34;;;20.90;67.32
20015;BME280;61787;42.022;23.078;2023-08-20T02:14:16;96768.94;;;20.99;67.11
20015;BME280;61787;42.022;23.078;2023-08-20T02:15:18;96769.63;;;21.10;66.76
20015;BME280;61787;42.022;23.078;2023-08-20T02:16:20;96775.78;;;21.21;66.64
20015;BME280;61787;42.022;23.078;2023-08-20T02:17:21;96776.53;;;21.29;65.94
20015;BME280;61787;42.022;23.078;2023-08-20T02:18:24;96779.50;;;21.41;65.73
20015;BME280;61787;42.022;23.078;2023-08-20T02:19:26;96770.81;;;21.53;65.60
20015;BME280;61787;42.022;23.078;2023-08-20T02:20:28;96767.56;;;21.65;64.91
20015;BME280;61787;42.022;23.078;2023-08-20T02:21:29;96772.13;;;21.76;64.75
20015;BME280;61787;42.022;23.078;2023-08-20T02:22:31;96778.34;;;21.80;64.37
20015;BME280;61787;42.022;23.078;2023-08-20T02:23:33;96775.69;;;21.73;63.79
20015;BME280;61787;42.022;23.078;2023-08-20T02:24:34;96775.41;;;21.60;63.81
20015;BME280;61787;42.022;23.078;2023-08-20T02:25:36;96780.75;;;21.33;64.43
20015;BME280;61787;42.022;23.078;2023-08-20T02:26:37;96777.41;;;21.15;65.13
20015;BME280;61787;42.022;23.078;2023-08-20T02:27:39;96777.50;;;21.01;65.55
20015;BME280;61787;42.022;23.078;2023-08-20T02:28:40;96772.13;;;20.90;66.48
20015;BME280;61787;42.022;23.078;2023-08-20T02:29:42;96777.19;;;20.92;66.33
20015;BME280;61787;42.022;23.078;2023-08-20T02:30:45;96780.59;;;20.99;65.79
20015;BME280;61787;42.022;23.078;2023-08-20T02:31:48;96780.91;;;21.12;65.77
20015;BME280;61787;42.022;23.078;2023-08-20T02:32:49;96781.28;;;21.17;65.52
20015;BME280;61787;42.022;23.078;2023-08-20T02:33:51;96777.25;;;21.29;65.30
20015;BME280;61787;42.022;23.078;2023-08-20T02:34:54;96784.22;;;21.37;65.30
20015;BME280;61787;42.022;23.078;2023-08-20T02:36:01;96773.22;;;21.48;65.33
20015;BME280;61787;42.022;23.078;2023-08-20T02:37:02;96775.09;;;21.54;65.19
20015;BME280;61787;42.022;23.078;2023-08-20T02:38:05;96767.66;;;21.55;64.75
20015;BME280;61787;42.022;23.078;2023-08-20T02:39:07;96772.94;;;21.35;63.78
20015;BME280;61787;42.022;23.078;2023-08-20T02:40:09;96780.50;;;21.17;64.50
20015;BME280;61787;42.022;23.078;2023-08-20T02:41:13;96772.75;;;21.08;64.24
20015;BME280;61787;42.022;23.078;2023-08-20T02:42:14;96770.47;;;21.00;64.70
20015;BME280;61787;42.022;23.078;2023-08-20T02:43:17;96777.44;;;21.04;65.10
20015;BME280;61787;42.022;23.078;2023-08-20T02:44:18;96778.19;;;21.12;64.79
20015;BME280;61787;42.022;23.078;2023-08-20T02:45:20;96781.97;;;21.25;65.10
20015;BME280;61787;42.022;23.078;2023-08-20T02:46:21;96778.03;;;21.33;65.08
20015;BME280;61787;42.022;23.078;2023-08-20T02:47:23;96777.94;;;21.40;64.47
20015;BME280;61787;42.022;23.078;2023-08-20T02:48:25;96782.75;;;21.25;63.77
20015;BME280;61787;42.022;23.078;2023-08-20T02:49:28;96775.91;;;21.03;64.57
20015;BME280;61787;42.022;23.078;2023-08-20T02:50:30;96777.19;;;20.92;65.48
20015;BME280;61787;42.022;23.078;2023-08-20T02:51:32;96781.50;;;20.85;65.51
20015;BME280;61787;42.022;23.078;2023-08-20T02:52:34;96782.34;;;20.75;66.24
20015;BME280;61787;42.022;23.078;2023-08-20T02:53:35;96790.50;;;20.79;67.22
20015;BME280;61787;42.022;23.078;2023-08-20T02:54:37;96798.63;;;20.86;68.21
20015;BME280;61787;42.022;23.078;2023-08-20T02:55:38;96798.56;;;20.97;68.27
20015;BME280;61787;42.022;23.078;2023-08-20T02:56:40;96796.16;;;21.06;69.06
20015;BME280;61787;42.022;23.078;2023-08-20T02:57:42;96800.78;;;21.09;69.22
20015;BME280;61787;42.022;23.078;2023-08-20T02:58:43;96800.81;;;21.05;69.54
20015;BME280;61787;42.022;23.078;2023-08-20T02:59:45;96798.94;;;20.95;70.14
20015;BME280;61787;42.022;23.078;2023-08-20T03:00:46;96802.50;;;20.89;70.43
20015;BME280;61787;42.022;23.078;2023-08-20T03:01:48;96802.13;;;20.87;70.69
20015;BME280;61787;42.022;23.078;2023-08-20T03:02:50;96807.09;;;20.99;70.58
20015;BME280;61787;42.022;23.078;2023-08-20T03:03:51;96804.72;;;21.08;70.93
20015;BME280;61787;42.022;23.078;2023-08-20T03:04:53;96801.50;;;21.20;70.29
20015;BME280;61787;42.022;23.078;2023-08-20T03:05:57;96811.13;;;21.35;69.59
20015;BME280;61787;42.022;23.078;2023-08-20T03:06:59;96806.06;;;21.37;69.20
20015;BME280;61787;42.022;23.078;2023-08-20T03:08:00;96807.63;;;21.35;68.62
20015;BME280;61787;42.022;23.078;2023-08-20T03:09:02;96809.91;;;21.40;68.81
20015;BME280;61787;42.022;23.078;2023-08-20T03:10:06;96809.09;;;21.46;67.88
20015;BME280;61787;42.022;23.078;2023-08-20T03:11:07;96812.94;;;21.52;67.89
20015;BME280;61787;42.022;23.078;2023-08-20T03:12:09;96816.78;;;21.58;67.72
20015;BME280;61787;42.022;23.078;2023-08-20T03:13:11;96816.34;;;21.60;67.17
20015;BME280;61787;42.022;23.078;2023-08-20T03:14:12;96815.59;;;21.59;67.16
20015;BME280;61787;42.022;23.078;2023-08-20T03:15:14;96818.34;;;21.59;66.75
20015;BME280;61787;42.022;23.078;2023-08-20T03:16:16;96817.91;;;21.64;66.64
20015;BME280;61787;42.022;23.078;2023-08-20T03:17:17;96826.00;;;21.72;66.34
20015;BME280;61787;42.022;23.078;2023-08-20T03:18:19;96818.19;;;21.74;65.79
20015;BME280;61787;42.022;23.078;2023-08-20T03:19:20;96812.06;;;21.62;65.60
20015;BME280;61787;42.022;23.078;2023-08-20T03:20:22;96818.63;;;21.65;65.83
20015;BME280;61787;42.022;23.078;2023-08-20T03:21:24;96820.53;;;21.72;65.43
20015;BME280;61787;42.022;23.078;2023-08-20T03:22:26;96817.06;;;21.67;64.61
20015;BME280;61787;42.022;23.078;2023-08-20T03:23:29;96823.66;;;21.70;64.90
20015;BME280;61787;42.022;23.078;2023-08-20T03:24:30;96828.38;;;21.69;64.52
20015;BME280;61787;42.022;23.078;2023-08-20T03:25:32;96819.81;;;21.67;64.45
20015;BME280;61787;42.022;23.078;2023-08-20T03:26:34;96822.16;;;21.65;64.52
20015;BME280;61787;42.022;23.078;2023-08-20T03:27:35;96819.91;;;21.57;64.95
20015;BME280;61787;42.022;23.078;2023-08-20T03:28:37;96821.78;;;21.63;64.86
20015;BME280;61787;42.022;23.078;2023-08-20T03:29:39;96821.72;;;21.70;64.31
20015;BME280;61787;42.022;23.078;2023-08-20T03:30:41;96825.22;;;21.71;64.44
20015;BME280;61787;42.022;23.078;2023-08-20T03:31:42;96819.75;;;21.75;64.23
20015;BME280;61787;42.022;23.078;2023-08-20T03:32:44;96824.38;;;21.78;64.30
20015;BME280;61787;42.022;23.078;2023-08-20T03:33:46;96824.75;;;21.80;63.80
20015;BME280;61787;42.022;23.078;2023-08-20T03:34:47;96823.56;;;21.81;63.50
20015;BME280;61787;42.022;23.078;2023-08-20T03:35:49;96828.22;;;21.84;63.46
20015;BME280;61787;42.022;23.078;2023-08-20T03:36:50;96824.66;;;21.90;63.13
20015;BME280;61787;42.022;23.078;2023-08-20T03:37:52;96825.06;;;21.89;63.34
20015;BME280;61787;42.022;23.078;2023-08-20T03:38:54;96827.56;;;21.73;63.65
20015;BME280;61787;42.022;23.078;2023-08-20T03:39:55;96822.97;;;21.62;64.20
20015;BME280;61787;42.022;23.078;2023-08-20T03:40:57;96834.63;;;21.66;64.11
20015;BME280;61787;42.022;23.078;2023-08-20T03:41:58;96827.94;;;21.71;64.35
20015;BME280;61787;42.022;23.078;2023-08-20T03:43:00;96829.91;;;21.70;64.28
20015;BME280;61787;42.022;23.078;2023-08-20T03:44:01;96826.09;;;21.61;64.88
20015;BME280;61787;42.022;23.078;2023-08-20T03:45:05;96826.81;;;21.65;64.87
20015;BME280;61787;42.022;23.078;2023-08-20T03:46:07;96836.50;;;21.73;64.51
20015;BME280;61787;42.022;23.078;2023-08-20T03:47:09;96829.91;;;21.70;64.80
20015;BME280;61787;42.022;23.078;2023-08-20T03:48:11;96827.56;;;21.73;64.68
20015;BME280;61787;42.022;23.078;2023-08-20T03:49:12;96825.63;;;21.69;64.65
20015;BME280;61787;42.022;23.078;2023-08-20T03:50:14;96830.22;;;21.76;64.43
20015;BME280;61787;42.022;23.078;2023-08-20T03:51:16;96819.66;;;21.82;64.36
20015;BME280;61787;42.022;23.078;2023-08-20T03:52:18;96823.88;;;21.86;64.05
20015;BME280;61787;42.022;23.078;2023-08-20T03:53:19;96823.09;;;21.86;64.40
20015;BME280;61787;42.022;23.078;2023-08-20T03:54:21;96827.50;;;21.80;64.44
20015;BME280;61787;42.022;23.078;2023-08-20T03:55:22;96824.31;;;21.85;64.21
20015;BME280;61787;42.022;23.078;2023-08-20T03:56:24;96825.41;;;21.91;64.22
20015;BME280;61787;42.022;23.078;2023-08-20T03:57:26;96821.91;;;21.94;64.30
20015;BME280;61787;42.022;23.078;2023-08-20T03:58:27;96826.13;;;21.98;64.40
20015;BME280;61787;42.022;23.078;2023-08-20T03:59:29;96824.22;;;21.92;64.82
20015;BME280;61787;42.022;23.078;2023-08-20T04:00:32;96831.31;;;21.86;64.98
20015;BME280;61787;42.022;23.078;2023-08-20T04:01:35;96823.94;;;21.83;64.99
20015;BME280;61787;42.022;23.078;2023-08-20T04:02:38;96829.78;;;21.85;65.19
20015;BME280;61787;42.022;23.078;2023-08-20T04:03:40;96830.44;;;21.96;64.43
20015;BME280;61787;42.022;23.078;2023-08-20T04:04:41;96823.34;;;22.05;64.52
20015;BME280;61787;42.022;23.078;2023-08-20T04:05:43;96821.25;;;22.17;63.85
20015;BME280;61787;42.022;23.078;2023-08-20T04:06:45;96816.06;;;22.26;63.55
20015;BME280;61787;42.022;23.078;2023-08-20T04:07:46;96816.03;;;22.29;63.12
20015;BME280;61787;42.022;23.078;2023-08-20T04:08:48;96825.34;;;22.32;63.05
20015;BME280;61787;42.022;23.078;2023-08-20T04:09:50;96823.03;;;22.30;63.54
20015;BME280;61787;42.022;23.078;2023-08-20T04:10:51;96817.59;;;22.30;63.58
20015;BME280;61787;42.022;23.078;2023-08-20T04:11:53;96819.88;;;22.32;63.69
20015;BME280;61787;42.022;23.078;2023-08-20T04:12:55;96823.38;;;22.32;63.64
20015;BME280;61787;42.022;23.078;2023-08-20T04:13:56;96818.38;;;22.27;63.60
20015;BME280;61787;42.022;23.078;2023-08-20T04:14:58;96818.38;;;22.27;63.84
20015;BME280;61787;42.022;23.078;2023-08-20T04:16:00;96821.50;;;22.29;63.76
20015;BME280;61787;42.022;23.078;2023-08-20T04:17:01;96820.31;;;22.30;63.60
20015;BME280;61787;42.022;23.078;2023-08-20T04:18:03;96824.59;;;22.31;63.58
20015;BME280;61787;42.022;23.078;2023-08-20T04:19:05;96826.22;;;22.25;63.72
20015;BME280;61787;42.022;23.078;2023-08-20T04:20:07;96823.84;;;22.27;64.36
20015;BME280;61787;42.022;23.078;2023-08-20T04:21:10;96821.13;;;22.27;63.86
20015;BME280;61787;42.022;23.078;2023-08-20T04:22:12;96822.41;;;22.19;64.22
20015;BME280;61787;42.022;23.078;2023-08-20T04:23:14;96819.94;;;22.28;64.14
20015;BME280;61787;42.022;23.078;2023-08-20T04:24:15;96819.13;;;22.31;63.87
20015;BME280;61787;42.022;23.078;2023-08-20T04:25:17;96815.13;;;22.39;63.53
20015;BME280;61787;42.022;23.078;2023-08-20T04:26:18;96819.72;;;22.46;63.37
20015;BME280;61787;42.022;23.078;2023-08-20T04:27:20;96824.41;;;22.45;63.52
20015;BME280;61787;42.022;23.078;2023-08-20T04:28:22;96826.13;;;22.32;64.30
20015;BME280;61787;42.022;23.078;2023-08-20T04:29:23;96818.47;;;22.20;64.58
20015;BME280;61787;42.022;23.078;2023-08-20T04:30:25;96816.88;;;22.23;64.53
20015;BME280;61787;42.022;23.078;2023-08-20T04:31:27;96817.59;;;22.30;64.71
20015;BME280;61787;42.022;23.078;2023-08-20T04:32:28;96815.50;;;22.41;64.48
20015;BME280;61787;42.022;23.078;2023-08-20T04:33:30;96820.84;;;22.48;64.63
20015;BME280;61787;42.022;23.078;2023-08-20T04:34:32;96824.22;;;22.60;64.35
20015;BME280;61787;42.022;23.078;2023-08-20T04:35:33;96818.66;;;22.67;63.99
20015;BME280;61787;42.022;23.078;2023-08-20T04:36:35;96820.91;;;22.75;64.36
20015;BME280;61787;42.022;23.078;2023-08-20T04:37:37;96818.50;;;22.81;63.51
20015;BME280;61787;42.022;23.078;2023-08-20T04:38:39;96819.13;;;22.92;62.58
20015;BME280;61787;42.022;23.078;2023-08-20T04:39:40;96822.09;;;23.01;62.18
20015;BME280;61787;42.022;23.078;2023-08-20T04:40:42;96818.84;;;23.10;62.10
20015;BME280;61787;42.022;23.078;2023-08-20T04:41:47;96817.91;;;23.20;61.78
20015;BME280;61787;42.022;23.078;2023-08-20T04:42:49;96812.72;;;23.25;61.75
20015;BME280;61787;42.022;23.078;2023-08-20T04:43:50;96823.56;;;23.32;61.71
20015;BME280;61787;42.022;23.078;2023-08-20T04:44:52;96816.91;;;23.33;61.69
20015;BME280;61787;42.022;23.078;2023-08-20T04:45:53;96823.88;;;23.38;61.82
20015;BME280;61787;42.022;23.078;2023-08-20T04:46:56;96813.59;;;23.46;61.41
20015;BME280;61787;42.022;23.078;2023-08-20T04:47:59;96814.59;;;23.55;61.98
20015;BME280;61787;42.022;23.078;2023-08-20T04:49:01;96826.53;;;23.65;61.10
20015;BME280;61787;42.022;23.078;2023-08-20T04:50:03;96814.28;;;23.73;60.40
20015;BME280;61787;42.022;23.078;2023-08-20T04:51:05;96819.16;;;23.85;59.92
20015;BME280;61787;42.022;23.078;2023-08-20T04:52:07;96820.66;;;23.90;60.73
20015;BME280;61787;42.022;23.078;2023-08-20T04:53:09;96823.69;;;23.95;60.74
20015;BME280;61787;42.022;23.078;2023-08-20T04:54:10;96817.47;;;23.91;59.31
20015;BME280;61787;42.022;23.078;2023-08-20T04:55:12;96820.09;;;23.98;59.45
20015;BME280;61787;42.022;23.078;2023-08-20T04:56:13;96817.56;;;24.07;59.00
20015;BME280;61787;42.022;23.078;2023-08-20T04:57:15;96816.59;;;24.17;58.41
20015;BME280;61787;42.022;23.078;2023-08-20T04:58:17;96818.72;;;24.30;58.29
20015;BME280;61787;42.022;23.078;2023-08-20T04:59:19;96814.56;;;24.41;57.88
20015;BME280;61787;42.022;23.078;2023-08-20T05:00:22;96809.19;;;24.54;57.95
20015;BME280;61787;42.022;23.078;2023-08-20T05:01:23;96815.91;;;24.69;57.64
20015;BME280;61787;42.022;23.078;2023-08-20T05:02:25;96816.47;;;24.80;57.14
20015;BME280;61787;42.022;23.078;2023-08-20T05:03:31;96815.47;;;24.90;56.92
20015;BME280;61787;42.022;23.078;2023-08-20T05:04:33;96813.50;;;24.91;56.30
20015;BME280;61787;42.022;23.078;2023-08-20T05:05:34;96822.34;;;24.98;55.92
20015;BME280;61787;42.022;23.078;2023-08-20T05:06:36;96817.47;;;25.06;55.73
20015;BME280;61787;42.022;23.078;2023-08-20T05:07:38;96814.13;;;25.15;55.38
20015;BME280;61787;42.022;23.078;2023-08-20T05:08:40;96814.63;;;25.26;54.86
20015;BME280;61787;42.022;23.078;2023-08-20T05:09:42;96824.59;;;25.36;54.80
20015;BME280;61787;42.022;23.078;2023-08-20T05:10:44;96818.31;;;25.35;53.79
20015;BME280;61787;42.022;23.078;2023-08-20T05:11:46;96823.47;;;25.17;53.57
20015;BME280;61787;42.022;23.078;2023-08-20T05:12:49;96818.06;;;25.14;54.03
20015;BME280;61787;42.022;23.078;2023-08-20T05:13:50;96817.72;;;25.28;54.07
20015;BME280;61787;42.022;23.078;2023-08-20T05:14:52;96822.19;;;25.38;54.38
20015;BME280;61787;42.022;23.078;2023-08-20T05:15:53;96822.53;;;25.40;53.61
20015;BME280;61787;42.022;23.078;2023-08-20T05:16:55;96822.88;;;25.42;53.96
20015;BME280;61787;42.022;23.078;2023-08-20T05:17:57;96822.19;;;25.38;53.70
20015;BME280;61787;42.022;23.078;2023-08-20T05:18:59;96824.44;;;25.43;54.13
20015;BME280;61787;42.022;23.078;2023-08-20T05:20:00;96821.84;;;25.52;53.89
20015;BME280;61787;42.022;23.078;2023-08-20T05:21:02;96827.63;;;25.58;54.24
20015;BME280;61787;42.022;23.078;2023-08-20T05:22:04;96825.44;;;25.65;54.12
20015;BME280;61787;42.022;23.078;2023-08-20T05:23:05;96825.28;;;25.72;53.81
20015;BME280;61787;42.022;23.078;2023-08-20T05:24:07;96817.56;;;25.67;53.17
20015;BME280;61787;42.022;23.078;2023-08-20T05:25:09;96824.50;;;25.72;53.28
20015;BME280;61787;42.022;23.078;2023-08-20T05:26:11;96825.75;;;25.83;53.84
20015;BME280;61787;42.022;23.078;2023-08-20T05:27:16;96821.53;;;25.95;53.86
20015;BME280;61787;42.022;23.078;2023-08-20T05:28:20;96815.75;;;26.06;53.81
20015;BME280;61787;42.022;23.078;2023-08-20T05:29:22;96828.19;;;26.10;53.61
20015;BME280;61787;42.022;23.078;2023-08-20T05:30:23;96832.56;;;26.08;53.40
20015;BME280;61787;42.022;23.078;2023-08-20T05:31:25;96829.16;;;26.04;53.06
20015;BME280;61787;42.022;23.078;2023-08-20T05:32:26;96829.81;;;26.08;53.20